Cleveland, Ohio
Traffic Map
Current Weather Conditions
Cleveland, Ohio
Overcast Haze
Overcast
13°
Feels Like: 13°
Wind Chill: 13° Ceiling: 500
Heat Index: 13° Visibility: 6mi
Dew Point: 11° Wind: 6mph
Humidity: 89% Direction: 310° (NW)
Pressure: 30.16in Gusts: 0mph
Raw Report DataKBKL 231325Z 31005KT 6SM BR BKN005 OVC010 13/11 A3016 RMK AO2 T01280111
Traffic Incident Summary
Active as of:
Severity:
Category:
InformationThere was an issue retrieving the traffic information for this location. Please try a different location or try again shortly.
Advertisements